Abu Dhabi, United Arab Emirates
Current Conditions -  °F | °C
As of 4:00 PM on Thursday 23 Oct 2014 (Local Time) from OMAD Reporting Station
Few Clouds Few Clouds  
Wind Chill: 90°   Ceiling: Unl
Heat Index: 91°   Visibility: 6mi
Dew Point: 64°   Wind: 18mph
Humidity: 43%   Direction: 310°NW
Pressure: 29.88"   Gusts: NA
Location:  24.48°N, 54.37°E
Report Text: OMAD 231200Z 31016KT 9999 FEW045 32/18 Q1012 A2990 NOSIG
Loading
Personal Weather Stations






























Interactive Weather Map
Tropical Storm Tracking
New forecast layout! Learn more

10-Day Weather Forecast

Advertisements
Track Severe Weather on mobile